sensor_id;sensor_type;location;lat;lon;timestamp;P1;durP1;ratioP1;P2;durP2;ratioP2
70927;SDS011;58587;53.034;18.576;2024-01-15T00:00:33;12.63;;;5.47;;
70927;SDS011;58587;53.034;18.576;2024-01-15T00:02:59;12.03;;;5.67;;
70927;SDS011;58587;53.034;18.576;2024-01-15T00:05:24;12.30;;;5.60;;
70927;SDS011;58587;53.034;18.576;2024-01-15T00:07:49;12.77;;;5.90;;
70927;SDS011;58587;53.034;18.576;2024-01-15T00:10:15;11.07;;;5.67;;
70927;SDS011;58587;53.034;18.576;2024-01-15T00:12:40;12.70;;;5.25;;
70927;SDS011;58587;53.034;18.576;2024-01-15T00:15:05;11.00;;;5.60;;
70927;SDS011;58587;53.034;18.576;2024-01-15T00:17:31;11.43;;;5.77;;
70927;SDS011;58587;53.034;18.576;2024-01-15T00:19:56;15.77;;;6.60;;
70927;SDS011;58587;53.034;18.576;2024-01-15T00:22:25;12.90;;;6.13;;
70927;SDS011;58587;53.034;18.576;2024-01-15T00:24:52;12.93;;;5.93;;
70927;SDS011;58587;53.034;18.576;2024-01-15T00:27:17;12.90;;;6.67;;
70927;SDS011;58587;53.034;18.576;2024-01-15T00:29:42;12.13;;;6.27;;
70927;SDS011;58587;53.034;18.576;2024-01-15T00:32:08;11.43;;;5.80;;
70927;SDS011;58587;53.034;18.576;2024-01-15T00:34:33;13.60;;;6.95;;
70927;SDS011;58587;53.034;18.576;2024-01-15T00:36:58;13.55;;;6.88;;
70927;SDS011;58587;53.034;18.576;2024-01-15T00:39:24;15.07;;;7.50;;
70927;SDS011;58587;53.034;18.576;2024-01-15T00:41:49;13.63;;;6.87;;
70927;SDS011;58587;53.034;18.576;2024-01-15T00:44:14;14.97;;;7.30;;
70927;SDS011;58587;53.034;18.576;2024-01-15T00:46:43;16.50;;;7.60;;
70927;SDS011;58587;53.034;18.576;2024-01-15T00:49:10;14.38;;;6.72;;
70927;SDS011;58587;53.034;18.576;2024-01-15T00:51:36;14.75;;;7.72;;
70927;SDS011;58587;53.034;18.576;2024-01-15T00:54:02;15.40;;;7.57;;
70927;SDS011;58587;53.034;18.576;2024-01-15T00:56:27;16.97;;;7.70;;
70927;SDS011;58587;53.034;18.576;2024-01-15T00:58:52;14.23;;;7.53;;
70927;SDS011;58587;53.034;18.576;2024-01-15T01:01:17;15.27;;;7.73;;
70927;SDS011;58587;53.034;18.576;2024-01-15T01:03:43;14.70;;;7.65;;
70927;SDS011;58587;53.034;18.576;2024-01-15T01:06:08;15.60;;;7.25;;
70927;SDS011;58587;53.034;18.576;2024-01-15T01:08:34;15.00;;;7.80;;
70927;SDS011;58587;53.034;18.576;2024-01-15T01:10:59;16.77;;;7.97;;
70927;SDS011;58587;53.034;18.576;2024-01-15T01:13:25;13.90;;;7.33;;
70927;SDS011;58587;53.034;18.576;2024-01-15T01:15:50;15.88;;;7.85;;
70927;SDS011;58587;53.034;18.576;2024-01-15T01:18:16;16.77;;;8.20;;
70927;SDS011;58587;53.034;18.576;2024-01-15T01:20:41;13.70;;;7.17;;
70927;SDS011;58587;53.034;18.576;2024-01-15T01:23:06;14.47;;;7.40;;
70927;SDS011;58587;53.034;18.576;2024-01-15T01:25:32;15.73;;;7.77;;
70927;SDS011;58587;53.034;18.576;2024-01-15T01:27:57;15.60;;;7.83;;
70927;SDS011;58587;53.034;18.576;2024-01-15T01:30:22;15.20;;;7.77;;
70927;SDS011;58587;53.034;18.576;2024-01-15T01:32:47;15.20;;;8.47;;
70927;SDS011;58587;53.034;18.576;2024-01-15T01:35:13;16.27;;;8.10;;
70927;SDS011;58587;53.034;18.576;2024-01-15T01:37:39;16.13;;;7.57;;
70927;SDS011;58587;53.034;18.576;2024-01-15T01:40:04;14.63;;;7.80;;
70927;SDS011;58587;53.034;18.576;2024-01-15T01:42:30;14.05;;;7.65;;
70927;SDS011;58587;53.034;18.576;2024-01-15T01:44:56;14.63;;;7.63;;
70927;SDS011;58587;53.034;18.576;2024-01-15T01:47:21;14.97;;;7.50;;
70927;SDS011;58587;53.034;18.576;2024-01-15T01:49:46;14.33;;;7.50;;
70927;SDS011;58587;53.034;18.576;2024-01-15T01:52:12;13.60;;;7.63;;
70927;SDS011;58587;53.034;18.576;2024-01-15T01:54:38;15.00;;;8.02;;
70927;SDS011;58587;53.034;18.576;2024-01-15T01:57:05;13.00;;;6.85;;
70927;SDS011;58587;53.034;18.576;2024-01-15T01:59:32;13.80;;;7.43;;
70927;SDS011;58587;53.034;18.576;2024-01-15T02:01:59;14.30;;;7.78;;
70927;SDS011;58587;53.034;18.576;2024-01-15T02:04:27;14.60;;;7.50;;
70927;SDS011;58587;53.034;18.576;2024-01-15T02:06:53;14.45;;;7.00;;
70927;SDS011;58587;53.034;18.576;2024-01-15T02:09:18;14.67;;;6.97;;
70927;SDS011;58587;53.034;18.576;2024-01-15T02:11:45;16.43;;;7.63;;
70927;SDS011;58587;53.034;18.576;2024-01-15T02:14:11;15.25;;;7.22;;
70927;SDS011;58587;53.034;18.576;2024-01-15T02:16:37;11.57;;;6.53;;
70927;SDS011;58587;53.034;18.576;2024-01-15T02:19:02;12.77;;;6.77;;
70927;SDS011;58587;53.034;18.576;2024-01-15T02:21:27;12.73;;;7.30;;
70927;SDS011;58587;53.034;18.576;2024-01-15T02:23:54;13.65;;;6.85;;
70927;SDS011;58587;53.034;18.576;2024-01-15T02:26:19;15.55;;;7.28;;
70927;SDS011;58587;53.034;18.576;2024-01-15T02:28:45;12.43;;;6.70;;
70927;SDS011;58587;53.034;18.576;2024-01-15T02:31:11;12.38;;;6.53;;
70927;SDS011;58587;53.034;18.576;2024-01-15T02:33:36;12.83;;;7.17;;
70927;SDS011;58587;53.034;18.576;2024-01-15T02:36:01;13.37;;;7.13;;
70927;SDS011;58587;53.034;18.576;2024-01-15T02:38:27;13.77;;;7.30;;
70927;SDS011;58587;53.034;18.576;2024-01-15T02:40:52;14.83;;;7.77;;
70927;SDS011;58587;53.034;18.576;2024-01-15T02:43:18;12.63;;;6.70;;
70927;SDS011;58587;53.034;18.576;2024-01-15T02:45:44;13.20;;;6.70;;
70927;SDS011;58587;53.034;18.576;2024-01-15T02:48:09;12.50;;;6.53;;
70927;SDS011;58587;53.034;18.576;2024-01-15T02:50:35;12.80;;;7.00;;
70927;SDS011;58587;53.034;18.576;2024-01-15T02:53:00;11.90;;;5.97;;
70927;SDS011;58587;53.034;18.576;2024-01-15T02:55:25;11.63;;;6.33;;
70927;SDS011;58587;53.034;18.576;2024-01-15T02:57:51;13.33;;;6.60;;
70927;SDS011;58587;53.034;18.576;2024-01-15T03:00:16;13.13;;;6.43;;
70927;SDS011;58587;53.034;18.576;2024-01-15T03:02:44;12.43;;;6.00;;
70927;SDS011;58587;53.034;18.576;2024-01-15T03:05:10;11.50;;;6.25;;
70927;SDS011;58587;53.034;18.576;2024-01-15T03:07:35;12.55;;;6.05;;
70927;SDS011;58587;53.034;18.576;2024-01-15T03:10:01;11.25;;;5.47;;
70927;SDS011;58587;53.034;18.576;2024-01-15T03:12:26;11.77;;;6.13;;
70927;SDS011;58587;53.034;18.576;2024-01-15T03:14:52;11.83;;;6.30;;
70927;SDS011;58587;53.034;18.576;2024-01-15T03:17:17;12.40;;;6.60;;
70927;SDS011;58587;53.034;18.576;2024-01-15T03:19:42;10.73;;;5.97;;
70927;SDS011;58587;53.034;18.576;2024-01-15T03:22:08;11.90;;;6.00;;
70927;SDS011;58587;53.034;18.576;2024-01-15T03:24:33;13.40;;;8.20;;
70927;SDS011;58587;53.034;18.576;2024-01-15T03:26:59;10.97;;;6.53;;
70927;SDS011;58587;53.034;18.576;2024-01-15T03:29:25;19.30;;;11.93;;
70927;SDS011;58587;53.034;18.576;2024-01-15T03:31:51;12.65;;;5.95;;
70927;SDS011;58587;53.034;18.576;2024-01-15T03:34:16;11.50;;;6.23;;
70927;SDS011;58587;53.034;18.576;2024-01-15T03:36:41;12.37;;;6.10;;
70927;SDS011;58587;53.034;18.576;2024-01-15T03:39:07;11.30;;;5.90;;
70927;SDS011;58587;53.034;18.576;2024-01-15T03:41:32;12.07;;;6.17;;
70927;SDS011;58587;53.034;18.576;2024-01-15T03:43:58;12.23;;;6.47;;
70927;SDS011;58587;53.034;18.576;2024-01-15T03:46:24;13.05;;;6.85;;
70927;SDS011;58587;53.034;18.576;2024-01-15T03:48:49;11.07;;;6.03;;
70927;SDS011;58587;53.034;18.576;2024-01-15T03:51:15;11.97;;;6.23;;
70927;SDS011;58587;53.034;18.576;2024-01-15T03:53:42;14.83;;;7.20;;
70927;SDS011;58587;53.034;18.576;2024-01-15T03:56:07;13.65;;;7.10;;
70927;SDS011;58587;53.034;18.576;2024-01-15T03:58:32;14.60;;;6.88;;
70927;SDS011;58587;53.034;18.576;2024-01-15T04:00:58;12.97;;;6.33;;
70927;SDS011;58587;53.034;18.576;2024-01-15T04:03:23;13.77;;;6.80;;
70927;SDS011;58587;53.034;18.576;2024-01-15T04:05:48;15.17;;;7.70;;
70927;SDS011;58587;53.034;18.576;2024-01-15T04:08:14;13.30;;;7.00;;
70927;SDS011;58587;53.034;18.576;2024-01-15T04:10:39;14.43;;;6.97;;
70927;SDS011;58587;53.034;18.576;2024-01-15T04:13:04;14.03;;;6.47;;
70927;SDS011;58587;53.034;18.576;2024-01-15T04:15:30;15.50;;;7.40;;
70927;SDS011;58587;53.034;18.576;2024-01-15T04:17:55;16.67;;;7.80;;
70927;SDS011;58587;53.034;18.576;2024-01-15T04:20:20;13.95;;;7.00;;
70927;SDS011;58587;53.034;18.576;2024-01-15T04:22:45;13.38;;;6.90;;
70927;SDS011;58587;53.034;18.576;2024-01-15T04:25:11;15.83;;;7.73;;
70927;SDS011;58587;53.034;18.576;2024-01-15T04:27:36;16.70;;;8.27;;
70927;SDS011;58587;53.034;18.576;2024-01-15T04:30:01;15.03;;;7.07;;
70927;SDS011;58587;53.034;18.576;2024-01-15T04:32:27;16.70;;;6.63;;
70927;SDS011;58587;53.034;18.576;2024-01-15T04:34:52;15.90;;;7.17;;
70927;SDS011;58587;53.034;18.576;2024-01-15T04:37:18;17.37;;;7.73;;
70927;SDS011;58587;53.034;18.576;2024-01-15T04:39:43;17.58;;;7.88;;
70927;SDS011;58587;53.034;18.576;2024-01-15T04:42:08;14.65;;;7.10;;
70927;SDS011;58587;53.034;18.576;2024-01-15T04:44:33;18.80;;;7.53;;
70927;SDS011;58587;53.034;18.576;2024-01-15T04:46:59;17.07;;;7.43;;
70927;SDS011;58587;53.034;18.576;2024-01-15T04:49:24;17.60;;;8.70;;
70927;SDS011;58587;53.034;18.576;2024-01-15T04:51:52;15.23;;;7.33;;
70927;SDS011;58587;53.034;18.576;2024-01-15T04:54:17;19.80;;;7.75;;
70927;SDS011;58587;53.034;18.576;2024-01-15T04:56:43;16.77;;;7.93;;
70927;SDS011;58587;53.034;18.576;2024-01-15T04:59:09;17.08;;;7.57;;
70927;SDS011;58587;53.034;18.576;2024-01-15T05:01:35;15.80;;;8.40;;
70927;SDS011;58587;53.034;18.576;2024-01-15T05:04:00;15.70;;;7.60;;
70927;SDS011;58587;53.034;18.576;2024-01-15T05:06:25;15.65;;;7.68;;
70927;SDS011;58587;53.034;18.576;2024-01-15T05:08:51;16.63;;;7.33;;
70927;SDS011;58587;53.034;18.576;2024-01-15T05:11:16;16.77;;;7.50;;
70927;SDS011;58587;53.034;18.576;2024-01-15T05:13:41;15.33;;;7.10;;
70927;SDS011;58587;53.034;18.576;2024-01-15T05:16:07;17.63;;;7.90;;
70927;SDS011;58587;53.034;18.576;2024-01-15T05:18:32;18.97;;;7.80;;
70927;SDS011;58587;53.034;18.576;2024-01-15T05:20:58;16.20;;;6.93;;
70927;SDS011;58587;53.034;18.576;2024-01-15T05:23:23;17.25;;;7.60;;
70927;SDS011;58587;53.034;18.576;2024-01-15T05:25:48;16.20;;;7.50;;
70927;SDS011;58587;53.034;18.576;2024-01-15T05:28:14;15.77;;;7.60;;
70927;SDS011;58587;53.034;18.576;2024-01-15T05:30:39;15.60;;;6.77;;
70927;SDS011;58587;53.034;18.576;2024-01-15T05:33:04;16.70;;;7.17;;
70927;SDS011;58587;53.034;18.576;2024-01-15T05:35:30;13.93;;;6.88;;
70927;SDS011;58587;53.034;18.576;2024-01-15T05:37:55;16.83;;;8.07;;
70927;SDS011;58587;53.034;18.576;2024-01-15T05:40:21;15.27;;;6.93;;
70927;SDS011;58587;53.034;18.576;2024-01-15T05:42:46;12.33;;;5.83;;
70927;SDS011;58587;53.034;18.576;2024-01-15T05:45:11;13.90;;;7.60;;
70927;SDS011;58587;53.034;18.576;2024-01-15T05:47:36;11.33;;;5.07;;
70927;SDS011;58587;53.034;18.576;2024-01-15T05:50:02;13.73;;;7.37;;
70927;SDS011;58587;53.034;18.576;2024-01-15T05:52:27;13.27;;;5.83;;
70927;SDS011;58587;53.034;18.576;2024-01-15T05:54:52;11.23;;;5.07;;
70927;SDS011;58587;53.034;18.576;2024-01-15T05:57:18;9.95;;;4.28;;
70927;SDS011;58587;53.034;18.576;2024-01-15T05:59:44;7.93;;;3.90;;
70927;SDS011;58587;53.034;18.576;2024-01-15T06:02:10;7.25;;;3.70;;
70927;SDS011;58587;53.034;18.576;2024-01-15T06:04:35;6.43;;;2.73;;
70927;SDS011;58587;53.034;18.576;2024-01-15T06:07:01;11.17;;;2.80;;
70927;SDS011;58587;53.034;18.576;2024-01-15T06:09:26;4.63;;;2.23;;
70927;SDS011;58587;53.034;18.576;2024-01-15T06:11:52;4.50;;;1.85;;
70927;SDS011;58587;53.034;18.576;2024-01-15T06:14:18;5.77;;;2.40;;
70927;SDS011;58587;53.034;18.576;2024-01-15T06:16:43;6.07;;;2.00;;
70927;SDS011;58587;53.034;18.576;2024-01-15T06:19:08;3.70;;;1.30;;
70927;SDS011;58587;53.034;18.576;2024-01-15T06:21:33;4.25;;;1.30;;
70927;SDS011;58587;53.034;18.576;2024-01-15T06:23:59;4.37;;;1.67;;
70927;SDS011;58587;53.034;18.576;2024-01-15T06:26:24;4.60;;;1.17;;
70927;SDS011;58587;53.034;18.576;2024-01-15T06:28:49;2.60;;;1.20;;
70927;SDS011;58587;53.034;18.576;2024-01-15T06:31:15;3.63;;;1.30;;
70927;SDS011;58587;53.034;18.576;2024-01-15T06:33:41;5.20;;;1.77;;
70927;SDS011;58587;53.034;18.576;2024-01-15T06:36:07;4.72;;;1.70;;
70927;SDS011;58587;53.034;18.576;2024-01-15T06:38:32;5.07;;;1.70;;
70927;SDS011;58587;53.034;18.576;2024-01-15T06:40:58;6.57;;;1.70;;
70927;SDS011;58587;53.034;18.576;2024-01-15T06:43:23;4.63;;;2.00;;
70927;SDS011;58587;53.034;18.576;2024-01-15T06:45:48;6.60;;;2.10;;
70927;SDS011;58587;53.034;18.576;2024-01-15T06:48:14;7.03;;;3.03;;
70927;SDS011;58587;53.034;18.576;2024-01-15T06:50:41;5.43;;;2.28;;
70927;SDS011;58587;53.034;18.576;2024-01-15T06:53:09;5.37;;;2.37;;
70927;SDS011;58587;53.034;18.576;2024-01-15T06:55:34;5.87;;;2.20;;
70927;SDS011;58587;53.034;18.576;2024-01-15T06:58:00;12.52;;;2.28;;
70927;SDS011;58587;53.034;18.576;2024-01-15T07:00:25;11.17;;;7.23;;
70927;SDS011;58587;53.034;18.576;2024-01-15T07:02:52;8.70;;;3.33;;
70927;SDS011;58587;53.034;18.576;2024-01-15T07:05:17;8.35;;;3.65;;
70927;SDS011;58587;53.034;18.576;2024-01-15T07:07:43;6.77;;;2.83;;
70927;SDS011;58587;53.034;18.576;2024-01-15T07:10:08;9.73;;;3.50;;
70927;SDS011;58587;53.034;18.576;2024-01-15T07:12:34;6.43;;;2.57;;
70927;SDS011;58587;53.034;18.576;2024-01-15T07:14:59;13.20;;;3.03;;
70927;SDS011;58587;53.034;18.576;2024-01-15T07:17:24;7.55;;;2.42;;
70927;SDS011;58587;53.034;18.576;2024-01-15T07:19:50;6.32;;;2.78;;
70927;SDS011;58587;53.034;18.576;2024-01-15T07:22:15;7.87;;;2.40;;
70927;SDS011;58587;53.034;18.576;2024-01-15T07:24:42;8.50;;;2.87;;
70927;SDS011;58587;53.034;18.576;2024-01-15T07:27:08;11.18;;;3.20;;
70927;SDS011;58587;53.034;18.576;2024-01-15T07:29:33;9.25;;;2.72;;
70927;SDS011;58587;53.034;18.576;2024-01-15T07:32:01;7.63;;;2.75;;
70927;SDS011;58587;53.034;18.576;2024-01-15T07:34:26;8.40;;;2.53;;
70927;SDS011;58587;53.034;18.576;2024-01-15T07:36:51;8.20;;;2.83;;
70927;SDS011;58587;53.034;18.576;2024-01-15T07:39:17;10.10;;;3.33;;
70927;SDS011;58587;53.034;18.576;2024-01-15T07:41:42;5.67;;;2.50;;
70927;SDS011;58587;53.034;18.576;2024-01-15T07:44:07;8.90;;;2.70;;
70927;SDS011;58587;53.034;18.576;2024-01-15T07:46:33;10.52;;;3.17;;
70927;SDS011;58587;53.034;18.576;2024-01-15T07:48:58;5.63;;;2.63;;
70927;SDS011;58587;53.034;18.576;2024-01-15T07:51:24;7.80;;;3.57;;
70927;SDS011;58587;53.034;18.576;2024-01-15T07:53:49;5.37;;;2.30;;
70927;SDS011;58587;53.034;18.576;2024-01-15T07:56:15;9.07;;;2.70;;
70927;SDS011;58587;53.034;18.576;2024-01-15T07:58:41;9.33;;;3.33;;
70927;SDS011;58587;53.034;18.576;2024-01-15T08:01:06;8.65;;;3.03;;
70927;SDS011;58587;53.034;18.576;2024-01-15T08:03:32;7.30;;;3.20;;
70927;SDS011;58587;53.034;18.576;2024-01-15T08:05:58;8.37;;;3.67;;
70927;SDS011;58587;53.034;18.576;2024-01-15T08:08:24;10.43;;;3.63;;
70927;SDS011;58587;53.034;18.576;2024-01-15T08:10:50;5.63;;;2.78;;
70927;SDS011;58587;53.034;18.576;2024-01-15T08:13:16;9.80;;;4.00;;
70927;SDS011;58587;53.034;18.576;2024-01-15T08:15:41;8.70;;;3.43;;
70927;SDS011;58587;53.034;18.576;2024-01-15T08:18:07;8.00;;;3.20;;
70927;SDS011;58587;53.034;18.576;2024-01-15T08:20:32;6.07;;;2.80;;
70927;SDS011;58587;53.034;18.576;2024-01-15T08:22:57;6.60;;;2.88;;
70927;SDS011;58587;53.034;18.576;2024-01-15T08:25:23;9.68;;;3.45;;
70927;SDS011;58587;53.034;18.576;2024-01-15T08:27:48;5.97;;;2.80;;
70927;SDS011;58587;53.034;18.576;2024-01-15T08:30:14;8.63;;;3.23;;
70927;SDS011;58587;53.034;18.576;2024-01-15T08:32:39;12.17;;;3.50;;
70927;SDS011;58587;53.034;18.576;2024-01-15T08:35:07;9.75;;;3.33;;
70927;SDS011;58587;53.034;18.576;2024-01-15T08:37:34;8.13;;;3.38;;
70927;SDS011;58587;53.034;18.576;2024-01-15T08:39:59;11.47;;;3.97;;
70927;SDS011;58587;53.034;18.576;2024-01-15T08:42:24;10.40;;;3.33;;
70927;SDS011;58587;53.034;18.576;2024-01-15T08:44:50;13.70;;;4.83;;
70927;SDS011;58587;53.034;18.576;2024-01-15T08:47:15;14.17;;;4.93;;
70927;SDS011;58587;53.034;18.576;2024-01-15T08:49:41;16.45;;;4.90;;
70927;SDS011;58587;53.034;18.576;2024-01-15T08:52:08;9.23;;;3.95;;
70927;SDS011;58587;53.034;18.576;2024-01-15T08:54:35;12.52;;;3.83;;
70927;SDS011;58587;53.034;18.576;2024-01-15T08:57:01;7.37;;;3.00;;
70927;SDS011;58587;53.034;18.576;2024-01-15T08:59:26;12.37;;;4.53;;
70927;SDS011;58587;53.034;18.576;2024-01-15T09:01:52;6.20;;;3.23;;
70927;SDS011;58587;53.034;18.576;2024-01-15T09:04:18;9.60;;;2.85;;
70927;SDS011;58587;53.034;18.576;2024-01-15T09:06:47;7.35;;;2.95;;
70927;SDS011;58587;53.034;18.576;2024-01-15T09:09:12;8.57;;;2.95;;
70927;SDS011;58587;53.034;18.576;2024-01-15T09:11:40;12.93;;;4.03;;
70927;SDS011;58587;53.034;18.576;2024-01-15T09:14:05;10.60;;;3.20;;
70927;SDS011;58587;53.034;18.576;2024-01-15T09:16:31;10.73;;;2.93;;
70927;SDS011;58587;53.034;18.576;2024-01-15T09:18:56;5.27;;;2.50;;
70927;SDS011;58587;53.034;18.576;2024-01-15T09:21:24;6.72;;;2.80;;
70927;SDS011;58587;53.034;18.576;2024-01-15T09:23:50;10.23;;;3.13;;
70927;SDS011;58587;53.034;18.576;2024-01-15T09:26:16;6.43;;;2.83;;
70927;SDS011;58587;53.034;18.576;2024-01-15T09:28:41;7.67;;;2.73;;
70927;SDS011;58587;53.034;18.576;2024-01-15T09:31:06;7.85;;;3.00;;
70927;SDS011;58587;53.034;18.576;2024-01-15T09:33:32;7.77;;;2.80;;
70927;SDS011;58587;53.034;18.576;2024-01-15T09:35:57;6.13;;;2.83;;
70927;SDS011;58587;53.034;18.576;2024-01-15T09:38:22;10.63;;;2.73;;
70927;SDS011;58587;53.034;18.576;2024-01-15T09:40:49;10.00;;;3.05;;
70927;SDS011;58587;53.034;18.576;2024-01-15T09:43:14;7.00;;;3.37;;
70927;SDS011;58587;53.034;18.576;2024-01-15T09:45:40;6.25;;;2.90;;
70927;SDS011;58587;53.034;18.576;2024-01-15T09:48:06;7.82;;;3.35;;
70927;SDS011;58587;53.034;18.576;2024-01-15T09:50:32;7.83;;;3.37;;
70927;SDS011;58587;53.034;18.576;2024-01-15T09:52:57;14.63;;;4.10;;
70927;SDS011;58587;53.034;18.576;2024-01-15T09:55:24;8.13;;;3.10;;
70927;SDS011;58587;53.034;18.576;2024-01-15T09:57:49;7.03;;;3.20;;
70927;SDS011;58587;53.034;18.576;2024-01-15T10:00:18;9.53;;;4.37;;
70927;SDS011;58587;53.034;18.576;2024-01-15T10:02:44;7.50;;;2.70;;
70927;SDS011;58587;53.034;18.576;2024-01-15T10:05:09;5.83;;;3.23;;
70927;SDS011;58587;53.034;18.576;2024-01-15T10:07:35;16.40;;;8.60;;
70927;SDS011;58587;53.034;18.576;2024-01-15T10:10:02;9.70;;;5.05;;
70927;SDS011;58587;53.034;18.576;2024-01-15T10:12:28;5.85;;;2.95;;
70927;SDS011;58587;53.034;18.576;2024-01-15T10:14:55;9.07;;;3.15;;
70927;SDS011;58587;53.034;18.576;2024-01-15T10:17:21;7.60;;;2.93;;
70927;SDS011;58587;53.034;18.576;2024-01-15T10:19:46;8.57;;;3.38;;
70927;SDS011;58587;53.034;18.576;2024-01-15T10:22:13;11.37;;;5.10;;
70927;SDS011;58587;53.034;18.576;2024-01-15T10:24:40;7.32;;;2.70;;
70927;SDS011;58587;53.034;18.576;2024-01-15T10:27:06;8.97;;;2.70;;
70927;SDS011;58587;53.034;18.576;2024-01-15T10:29:35;6.68;;;2.25;;
70927;SDS011;58587;53.034;18.576;2024-01-15T10:32:02;6.88;;;2.33;;
70927;SDS011;58587;53.034;18.576;2024-01-15T10:34:27;7.03;;;1.87;;
70927;SDS011;58587;53.034;18.576;2024-01-15T10:36:53;7.15;;;2.30;;
70927;SDS011;58587;53.034;18.576;2024-01-15T10:39:22;4.43;;;1.83;;
70927;SDS011;58587;53.034;18.576;2024-01-15T10:41:48;6.45;;;1.90;;
70927;SDS011;58587;53.034;18.576;2024-01-15T10:44:14;5.88;;;2.72;;
70927;SDS011;58587;53.034;18.576;2024-01-15T10:46:39;8.17;;;3.40;;
70927;SDS011;58587;53.034;18.576;2024-01-15T10:49:05;4.27;;;1.77;;
70927;SDS011;58587;53.034;18.576;2024-01-15T10:51:31;8.30;;;3.63;;
70927;SDS011;58587;53.034;18.576;2024-01-15T10:53:57;5.20;;;1.67;;
70927;SDS011;58587;53.034;18.576;2024-01-15T10:56:24;5.95;;;1.88;;
70927;SDS011;58587;53.034;18.576;2024-01-15T10:58:50;5.32;;;1.75;;
70927;SDS011;58587;53.034;18.576;2024-01-15T11:01:16;6.33;;;3.70;;
70927;SDS011;58587;53.034;18.576;2024-01-15T11:03:42;8.00;;;2.28;;
70927;SDS011;58587;53.034;18.576;2024-01-15T11:06:18;3.40;;;1.63;;
70927;SDS011;58587;53.034;18.576;2024-01-15T11:08:49;7.10;;;2.03;;
70927;SDS011;58587;53.034;18.576;2024-01-15T11:11:16;11.25;;;6.70;;
70927;SDS011;58587;53.034;18.576;2024-01-15T11:13:42;6.25;;;3.28;;
70927;SDS011;58587;53.034;18.576;2024-01-15T11:16:11;4.53;;;2.00;;
70927;SDS011;58587;53.034;18.576;2024-01-15T11:18:38;4.17;;;1.57;;
70927;SDS011;58587;53.034;18.576;2024-01-15T11:23:47;5.70;;;2.20;;
70927;SDS011;58587;53.034;18.576;2024-01-15T11:28:51;4.10;;;1.42;;
70927;SDS011;58587;53.034;18.576;2024-01-15T11:31:17;7.00;;;1.77;;
70927;SDS011;58587;53.034;18.576;2024-01-15T11:33:47;3.60;;;0.90;;
70927;SDS011;58587;53.034;18.576;2024-01-15T11:36:14;8.90;;;2.05;;
70927;SDS011;58587;53.034;18.576;2024-01-15T11:38:40;26.17;;;6.97;;
70927;SDS011;58587;53.034;18.576;2024-01-15T11:41:13;11.50;;;3.10;;
70927;SDS011;58587;53.034;18.576;2024-01-15T11:43:42;8.60;;;1.85;;
70927;SDS011;58587;53.034;18.576;2024-01-15T11:46:10;3.10;;;0.80;;
70927;SDS011;58587;53.034;18.576;2024-01-15T11:48:43;4.60;;;1.23;;
70927;SDS011;58587;53.034;18.576;2024-01-15T11:51:10;6.75;;;1.10;;
70927;SDS011;58587;53.034;18.576;2024-01-15T11:53:40;5.97;;;1.05;;
70927;SDS011;58587;53.034;18.576;2024-01-15T11:56:19;6.03;;;1.47;;
70927;SDS011;58587;53.034;18.576;2024-01-15T11:58:47;4.03;;;0.65;;
70927;SDS011;58587;53.034;18.576;2024-01-15T12:01:12;13.60;;;3.17;;
70927;SDS011;58587;53.034;18.576;2024-01-15T12:03:38;10.18;;;4.82;;
70927;SDS011;58587;53.034;18.576;2024-01-15T12:06:06;8.83;;;1.77;;
70927;SDS011;58587;53.034;18.576;2024-01-15T12:08:32;3.13;;;0.70;;
70927;SDS011;58587;53.034;18.576;2024-01-15T12:10:57;4.20;;;0.60;;
70927;SDS011;58587;53.034;18.576;2024-01-15T12:13:23;2.33;;;0.60;;
70927;SDS011;58587;53.034;18.576;2024-01-15T12:15:48;28.40;;;8.53;;
70927;SDS011;58587;53.034;18.576;2024-01-15T12:18:15;13.25;;;2.38;;
70927;SDS011;58587;53.034;18.576;2024-01-15T12:20:42;8.60;;;2.13;;
70927;SDS011;58587;53.034;18.576;2024-01-15T12:23:08;5.23;;;0.97;;
70927;SDS011;58587;53.034;18.576;2024-01-15T12:25:35;4.78;;;1.40;;
70927;SDS011;58587;53.034;18.576;2024-01-15T12:28:02;4.53;;;0.70;;
70927;SDS011;58587;53.034;18.576;2024-01-15T12:30:28;10.00;;;2.90;;
70927;SDS011;58587;53.034;18.576;2024-01-15T12:32:56;10.13;;;3.70;;
70927;SDS011;58587;53.034;18.576;2024-01-15T12:35:23;36.78;;;11.40;;
70927;SDS011;58587;53.034;18.576;2024-01-15T12:37:49;7.47;;;1.80;;
70927;SDS011;58587;53.034;18.576;2024-01-15T12:40:18;6.65;;;1.92;;
70927;SDS011;58587;53.034;18.576;2024-01-15T12:42:44;5.53;;;2.20;;
70927;SDS011;58587;53.034;18.576;2024-01-15T12:45:09;8.77;;;4.53;;
70927;SDS011;58587;53.034;18.576;2024-01-15T12:47:36;5.13;;;1.50;;
70927;SDS011;58587;53.034;18.576;2024-01-15T12:50:02;5.55;;;1.30;;
70927;SDS011;58587;53.034;18.576;2024-01-15T12:52:28;5.03;;;1.00;;
70927;SDS011;58587;53.034;18.576;2024-01-15T12:54:54;5.57;;;1.25;;
70927;SDS011;58587;53.034;18.576;2024-01-15T12:57:20;3.80;;;0.60;;
70927;SDS011;58587;53.034;18.576;2024-01-15T12:59:45;1.80;;;0.37;;
70927;SDS011;58587;53.034;18.576;2024-01-15T13:02:11;3.33;;;0.40;;
70927;SDS011;58587;53.034;18.576;2024-01-15T13:04:38;2.38;;;0.70;;
70927;SDS011;58587;53.034;18.576;2024-01-15T13:07:03;1.45;;;0.30;;
70927;SDS011;58587;53.034;18.576;2024-01-15T13:09:29;1.50;;;0.30;;
70927;SDS011;58587;53.034;18.576;2024-01-15T13:11:55;1.25;;;0.30;;
70927;SDS011;58587;53.034;18.576;2024-01-15T13:14:20;2.33;;;0.40;;
70927;SDS011;58587;53.034;18.576;2024-01-15T13:16:46;7.53;;;2.77;;
70927;SDS011;58587;53.034;18.576;2024-01-15T13:19:11;2.63;;;0.40;;
70927;SDS011;58587;53.034;18.576;2024-01-15T13:21:38;4.57;;;0.57;;
70927;SDS011;58587;53.034;18.576;2024-01-15T13:24:06;3.00;;;0.50;;
70927;SDS011;58587;53.034;18.576;2024-01-15T13:26:32;5.05;;;0.93;;
70927;SDS011;58587;53.034;18.576;2024-01-15T13:29:01;1.60;;;0.10;;
70927;SDS011;58587;53.034;18.576;2024-01-15T13:31:30;1.38;;;0.20;;
70927;SDS011;58587;53.034;18.576;2024-01-15T13:33:56;2.88;;;0.45;;
70927;SDS011;58587;53.034;18.576;2024-01-15T13:36:22;1.80;;;0.30;;
70927;SDS011;58587;53.034;18.576;2024-01-15T13:38:51;6.13;;;2.10;;
70927;SDS011;58587;53.034;18.576;2024-01-15T13:41:18;7.53;;;3.85;;
70927;SDS011;58587;53.034;18.576;2024-01-15T13:43:45;4.23;;;1.63;;
70927;SDS011;58587;53.034;18.576;2024-01-15T13:46:11;5.03;;;2.60;;
70927;SDS011;58587;53.034;18.576;2024-01-15T13:48:36;2.77;;;0.87;;
70927;SDS011;58587;53.034;18.576;2024-01-15T13:51:01;4.90;;;1.70;;
70927;SDS011;58587;53.034;18.576;2024-01-15T13:53:27;4.15;;;0.85;;
70927;SDS011;58587;53.034;18.576;2024-01-15T13:55:52;4.50;;;0.93;;
70927;SDS011;58587;53.034;18.576;2024-01-15T13:58:17;2.60;;;0.40;;
70927;SDS011;58587;53.034;18.576;2024-01-15T14:00:43;3.33;;;0.90;;
70927;SDS011;58587;53.034;18.576;2024-01-15T14:03:09;7.90;;;2.65;;
70927;SDS011;58587;53.034;18.576;2024-01-15T14:05:34;2.70;;;0.50;;
70927;SDS011;58587;53.034;18.576;2024-01-15T14:07:59;35.40;;;11.43;;
70927;SDS011;58587;53.034;18.576;2024-01-15T14:10:25;11.73;;;2.30;;
70927;SDS011;58587;53.034;18.576;2024-01-15T14:12:50;21.97;;;7.03;;
70927;SDS011;58587;53.034;18.576;2024-01-15T14:15:15;31.47;;;10.57;;
70927;SDS011;58587;53.034;18.576;2024-01-15T14:17:41;52.22;;;15.30;;
70927;SDS011;58587;53.034;18.576;2024-01-15T14:20:06;33.83;;;9.70;;
70927;SDS011;58587;53.034;18.576;2024-01-15T14:22:34;25.83;;;10.27;;
70927;SDS011;58587;53.034;18.576;2024-01-15T14:24:59;30.63;;;10.10;;